Time;durP1;ratioP1;P1;durP2;ratioP2;P2;SDS_P1;SDS_P2;PMS_P1;PMS_P2;Temp;Humidity;BMP_temperature;BMP_pressure;BME280_temperature;BME280_humidity;BME280_pressure;Samples;Min_cycle;Max_cycle;Signal;HPM_P1;HPM_P2
2022/09/10 00:01:28;;;;;;;;;;;;;;;20.23;100.00;97775.72;5120359;28;19955;-63
2022/09/10 00:03:55;;;;;;;;;;;;;;;20.20;100.00;97781.81;5122079;28;19991;-63
2022/09/10 00:06:26;;;;;;;;;;;;;;;20.13;100.00;97769.88;5125171;28;19924;-63
2022/09/10 00:08:55;;;;;;;;;;;;;;;20.07;100.00;97780.13;5124935;28;19979;-63
2022/09/10 00:11:21;;;;;;;;;;;;;;;20.11;100.00;97778.38;5121595;28;20011;-62
2022/09/10 00:13:48;;;;;;;;;;;;;;;20.05;100.00;97785.09;5121658;28;19996;-62
2022/09/10 00:16:15;;;;;;;;;;;;;;;20.09;100.00;97779.78;5124857;28;19987;-62
2022/09/10 00:18:43;;;;;;;;;;;;;;;20.07;100.00;97785.56;5125068;28;19984;-62
2022/09/10 00:21:10;;;;;;;;;;;;;;;20.04;100.00;97788.91;5122712;28;19995;-62
2022/09/10 00:23:37;;;;;;;;;;;;;;;20.04;100.00;97782.69;5121482;28;20296;-62
2022/09/10 00:26:09;;;;;;;;;;;;;;;20.09;100.00;97771.66;5123347;28;19932;-63
2022/09/10 00:28:36;;;;;;;;;;;;;;;20.08;100.00;97773.59;5124831;28;19955;-62
2022/09/10 00:31:02;;;;;;;;;;;;;;;19.87;100.00;97772.72;5123318;28;19955;-63
2022/09/10 00:33:29;;;;;;;;;;;;;;;19.73;100.00;97777.59;5121359;28;19924;-63
2022/09/10 00:35:57;;;;;;;;;;;;;;;19.53;100.00;97778.31;5121858;28;19955;-63
2022/09/10 00:38:24;;;;;;;;;;;;;;;19.58;100.00;97780.81;5124864;28;19949;-63
2022/09/10 00:40:50;;;;;;;;;;;;;;;19.50;100.00;97793.25;5124573;28;19945;-63
2022/09/10 00:43:19;;;;;;;;;;;;;;;19.23;100.00;97786.31;5112706;28;19950;-63
2022/09/10 00:45:47;;;;;;;;;;;;;;;19.41;100.00;97789.78;5112499;28;19930;-63
2022/09/10 00:48:16;;;;;;;;;;;;;;;19.58;100.00;97797.88;5112560;28;19946;-63
2022/09/10 00:50:44;;;;;;;;;;;;;;;19.71;100.00;97793.38;5112598;28;19928;-63
2022/09/10 00:53:14;;;;;;;;;;;;;;;19.79;100.00;97787.13;5112550;28;19920;-63
2022/09/10 00:55:42;;;;;;;;;;;;;;;19.90;100.00;97780.19;5124204;27;19987;-63
2022/09/10 00:58:10;;;;;;;;;;;;;;;19.87;100.00;97776.22;5122987;28;19995;-63
2022/09/10 01:00:40;;;;;;;;;;;;;;;19.84;100.00;97779.59;5123977;28;19991;-63
2022/09/10 01:03:07;;;;;;;;;;;;;;;19.87;100.00;97778.94;5121747;28;20018;-63
2022/09/10 01:05:34;;;;;;;;;;;;;;;19.73;100.00;97772.16;5120729;28;19967;-63
2022/09/10 01:08:00;;;;;;;;;;;;;;;19.43;100.00;97767.81;5121653;28;19988;-63
2022/09/10 01:10:30;;;;;;;;;;;;;;;19.15;100.00;97770.88;5123817;28;20022;-63
2022/09/10 01:13:20;;;;;;;;;;;;;;;19.13;100.00;97773.09;5122403;28;19986;-63
2022/09/10 01:15:50;;;;;;;;;;;;;;;19.39;100.00;97765.75;5120295;28;19924;-63
2022/09/10 01:18:26;;;;;;;;;;;;;;;19.53;100.00;97770.19;5111780;28;19928;-63
2022/09/10 01:20:59;;;;;;;;;;;;;;;19.64;100.00;97761.38;5111668;28;19920;-63
2022/09/10 01:23:44;;;;;;;;;;;;;;;19.67;100.00;97768.84;5111754;28;19955;-63
2022/09/10 01:26:15;;;;;;;;;;;;;;;19.79;100.00;97760.03;5122962;28;19932;-63
2022/09/10 01:28:45;;;;;;;;;;;;;;;19.78;100.00;97767.34;5123717;28;19924;-63
2022/09/10 01:31:17;;;;;;;;;;;;;;;19.81;100.00;97757.78;5120855;28;19928;-63
2022/09/10 01:33:47;;;;;;;;;;;;;;;19.77;100.00;97757.66;5120089;28;20015;-63
2022/09/10 01:36:16;;;;;;;;;;;;;;;19.85;100.00;97759.50;5123103;28;20018;-61
2022/09/10 01:38:42;;;;;;;;;;;;;;;19.79;100.00;97755.41;5123491;28;19987;-62
2022/09/10 01:41:09;;;;;;;;;;;;;;;19.62;100.00;97754.69;5120919;28;19990;-62
2022/09/10 01:43:35;;;;;;;;;;;;;;;19.47;100.00;97757.91;5119636;28;20000;-63
2022/09/10 01:46:13;;;;;;;;;;;;;;;19.52;100.00;97744.22;5120980;28;19924;-62
2022/09/10 01:49:06;;;;;;;;;;;;;;;19.38;100.00;97736.25;5123424;28;19966;-62
2022/09/10 01:51:43;;;;;;;;;;;;;;;19.35;100.00;97737.69;5094841;28;19924;-63
2022/09/10 01:54:18;;;;;;;;;;;;;;;19.46;100.00;97745.50;5125761;27;19923;-63
2022/09/10 01:56:49;;;;;;;;;;;;;;;19.23;100.00;97753.81;5123141;28;19991;-63
2022/09/10 01:59:23;;;;;;;;;;;;;;;18.87;100.00;97750.72;5119611;28;19924;-63
2022/09/10 02:01:54;;;;;;;;;;;;;;;19.08;100.00;97751.63;5119321;28;19955;-63
2022/09/10 02:04:22;;;;;;;;;;;;;;;19.21;100.00;97745.22;5119365;28;19924;-63
2022/09/10 02:06:50;;;;;;;;;;;;;;;18.91;100.00;97757.03;5119496;28;19987;-63
2022/09/10 02:09:18;;;;;;;;;;;;;;;19.04;100.00;97758.00;5110920;28;19931;-63
2022/09/10 02:11:46;;;;;;;;;;;;;;;19.14;100.00;97758.47;5111031;28;19924;-63
2022/09/10 02:14:13;;;;;;;;;;;;;;;18.91;100.00;97757.03;5110925;28;19939;-63
2022/09/10 02:16:40;;;;;;;;;;;;;;;18.79;100.00;97751.50;5110890;28;19928;-62
2022/09/10 02:19:10;;;;;;;;;;;;;;;19.04;100.00;97753.38;5110687;28;19955;-62
2022/09/10 02:21:37;;;;;;;;;;;;;;;19.13;100.00;97754.16;5100858;28;19950;-63
2022/09/10 02:24:04;;;;;;;;;;;;;;;19.21;100.00;97756.06;5123423;28;19986;-63
2022/09/10 02:26:32;;;;;;;;;;;;;;;19.21;100.00;97753.34;5122687;28;19955;-62
2022/09/10 02:28:58;;;;;;;;;;;;;;;19.07;100.00;97744.63;5121468;28;19924;-62
2022/09/10 02:31:25;;;;;;;;;;;;;;;18.72;100.00;97753.91;5118787;28;20023;-62
2022/09/10 02:33:53;;;;;;;;;;;;;;;18.82;100.00;97751.66;5119000;28;19933;-63
2022/09/10 02:36:24;;;;;;;;;;;;;;;18.94;100.00;97748.28;5122250;28;19949;-63
2022/09/10 02:38:50;;;;;;;;;;;;;;;18.75;100.00;97745.91;5122293;28;19920;-62
2022/09/10 02:41:16;;;;;;;;;;;;;;;18.76;100.00;97752.13;5118874;28;19924;-62
2022/09/10 02:43:45;;;;;;;;;;;;;;;18.96;100.00;97742.56;5118727;28;19931;-62
2022/09/10 02:46:12;;;;;;;;;;;;;;;19.03;100.00;97746.38;5121430;28;19950;-62
2022/09/10 02:48:38;;;;;;;;;;;;;;;19.10;100.00;97746.69;5122286;28;19949;-62
2022/09/10 02:51:05;;;;;;;;;;;;;;;19.08;100.00;97740.00;5120207;28;19920;-62
2022/09/10 02:53:34;;;;;;;;;;;;;;;19.07;100.00;97735.69;5118552;28;20085;-62
2022/09/10 02:56:01;;;;;;;;;;;;;;;19.13;100.00;97737.91;5123725;27;19962;-62
2022/09/10 02:58:30;;;;;;;;;;;;;;;18.70;100.00;97737.97;5104142;28;19991;-63
2022/09/10 03:01:04;;;;;;;;;;;;;;;18.77;100.00;97737.50;5121359;28;19924;-63
2022/09/10 03:03:32;;;;;;;;;;;;;;;18.79;100.00;97737.97;5118402;28;19924;-63
2022/09/10 03:05:58;;;;;;;;;;;;;;;18.54;100.00;97734.16;5119453;28;19938;-63
2022/09/10 03:08:25;;;;;;;;;;;;;;;18.50;100.00;97738.63;5121994;28;19930;-63
2022/09/10 03:10:53;;;;;;;;;;;;;;;18.53;100.00;97729.88;5122035;28;20010;-62
2022/09/10 03:13:19;;;;;;;;;;;;;;;18.64;100.00;97724.94;5110037;28;19924;-63
2022/09/10 03:15:46;;;;;;;;;;;;;;;18.46;100.00;97720.63;5109852;28;19988;-62
2022/09/10 03:18:12;;;;;;;;;;;;;;;18.47;100.00;97736.53;5109856;28;19939;-63
2022/09/10 03:20:40;;;;;;;;;;;;;;;18.64;100.00;97741.16;5109704;28;19983;-62
2022/09/10 03:23:07;;;;;;;;;;;;;;;18.84;100.00;97745.94;5109750;28;20027;-62
2022/09/10 03:25:34;;;;;;;;;;;;;;;18.98;100.00;97743.03;5121831;28;19924;-63
2022/09/10 03:28:02;;;;;;;;;;;;;;;19.01;100.00;97743.19;5119519;28;19924;-63
2022/09/10 03:30:28;;;;;;;;;;;;;;;18.41;100.00;97737.81;5121762;28;20022;-63
2022/09/10 03:32:54;;;;;;;;;;;;;;;17.86;100.00;97740.25;5121494;28;19991;-63
2022/09/10 03:35:21;;;;;;;;;;;;;;;17.56;100.00;97730.28;5101273;28;19979;-63
2022/09/10 03:37:47;;;;;;;;;;;;;;;17.42;100.00;97732.28;5122372;28;19951;-63
2022/09/10 03:40:14;;;;;;;;;;;;;;;17.65;100.00;97728.44;5125465;28;19928;-63
2022/09/10 03:42:41;;;;;;;;;;;;;;;17.47;100.00;97734.84;5125781;28;20019;-63
2022/09/10 03:45:09;;;;;;;;;;;;;;;18.06;100.00;97736.97;5123531;28;19958;-63
2022/09/10 03:47:37;;;;;;;;;;;;;;;18.28;100.00;97730.63;5122345;28;19944;-63
2022/09/10 03:50:03;;;;;;;;;;;;;;;18.53;100.00;97740.69;5123937;28;19924;-63
2022/09/10 03:52:30;;;;;;;;;;;;;;;18.68;100.00;97728.59;5125894;28;19938;-63
2022/09/10 03:54:56;;;;;;;;;;;;;;;18.55;100.00;97724.16;5110828;28;19930;-63
2022/09/10 03:57:24;;;;;;;;;;;;;;;18.57;100.00;97727.34;5122087;28;19920;-63
2022/09/10 03:59:51;;;;;;;;;;;;;;;18.58;100.00;97720.81;5122057;28;19924;-63
2022/09/10 04:02:19;;;;;;;;;;;;;;;18.35;100.00;97731.75;5103870;28;19932;-63
2022/09/10 04:04:45;;;;;;;;;;;;;;;18.63;100.00;97723.38;5122150;28;19992;-63
2022/09/10 04:07:12;;;;;;;;;;;;;;;18.66;100.00;97720.03;5124745;28;19958;-63
2022/09/10 04:09:38;;;;;;;;;;;;;;;18.77;100.00;97727.47;5125174;28;19947;-63
2022/09/10 04:12:04;;;;;;;;;;;;;;;18.43;100.00;97740.19;5123428;28;19994;-63
2022/09/10 04:14:31;;;;;;;;;;;;;;;17.71;100.00;97738.78;5121704;28;20039;-63
2022/09/10 04:16:58;;;;;;;;;;;;;;;17.81;100.00;97751.19;5122300;28;19924;-64
2022/09/10 04:19:26;;;;;;;;;;;;;;;18.13;100.00;97758.94;5124987;28;19987;-64
2022/09/10 04:21:53;;;;;;;;;;;;;;;18.33;100.00;97752.91;5124836;28;20094;-63
2022/09/10 04:24:19;;;;;;;;;;;;;;;17.95;100.00;97743.75;5127013;27;19995;-62
2022/09/10 04:26:46;;;;;;;;;;;;;;;17.41;100.00;97757.69;5124895;28;19970;-62
2022/09/10 04:29:13;;;;;;;;;;;;;;;17.08;100.00;97755.28;5122101;28;19988;-64
2022/09/10 04:31:40;;;;;;;;;;;;;;;17.15;100.00;97755.63;5121113;28;19928;-63
2022/09/10 04:34:07;;;;;;;;;;;;;;;17.10;100.00;97758.47;5123182;28;19924;-63
2022/09/10 04:36:35;;;;;;;;;;;;;;;16.87;100.00;97762.28;5124752;28;20516;-63
2022/09/10 04:39:01;;;;;;;;;;;;;;;16.37;100.00;97758.81;5123224;28;19920;-63
2022/09/10 04:41:28;;;;;;;;;;;;;;;16.34;100.00;97758.66;5121106;28;19965;-63
2022/09/10 04:43:54;;;;;;;;;;;;;;;16.25;100.00;97757.78;5121108;28;19963;-63
2022/09/10 04:46:21;;;;;;;;;;;;;;;16.50;100.00;97758.00;5124123;28;19919;-63
2022/09/10 04:48:47;;;;;;;;;;;;;;;16.60;100.00;97763.19;5123755;28;19959;-63
2022/09/10 04:51:13;;;;;;;;;;;;;;;16.62;100.00;97768.25;5121667;28;20063;-63
2022/09/10 04:53:41;;;;;;;;;;;;;;;16.73;100.00;97775.03;5121091;28;19966;-63
2022/09/10 04:56:08;;;;;;;;;;;;;;;16.68;100.00;97770.53;5106268;28;20455;-62
2022/09/10 04:58:34;;;;;;;;;;;;;;;16.52;100.00;97758.50;5124360;28;19928;-62
2022/09/10 05:01:01;;;;;;;;;;;;;;;16.64;100.00;97755.28;5122917;28;19988;-63
2022/09/10 05:03:27;;;;;;;;;;;;;;;16.60;100.00;97760.50;5120482;28;20308;-63
2022/09/10 05:05:53;;;;;;;;;;;;;;;16.69;100.00;97768.66;5120716;28;20034;-62
2022/09/10 05:08:20;;;;;;;;;;;;;;;16.71;100.00;97779.94;5123955;28;19938;-63
2022/09/10 05:10:48;;;;;;;;;;;;;;;16.80;100.00;97770.03;5123973;28;20617;-62
2022/09/10 05:13:14;;;;;;;;;;;;;;;16.87;100.00;97773.06;5120988;28;19991;-62
2022/09/10 05:15:40;;;;;;;;;;;;;;;16.92;100.00;97772.97;5120413;28;19927;-62
2022/09/10 05:18:07;;;;;;;;;;;;;;;16.87;100.00;97781.16;5122451;28;19992;-63
2022/09/10 05:20:34;;;;;;;;;;;;;;;17.18;100.00;97784.69;5123761;28;19931;-63
2022/09/10 05:23:01;;;;;;;;;;;;;;;17.50;100.00;97780.91;5122464;28;19955;-62
2022/09/10 05:25:27;;;;;;;;;;;;;;;17.50;100.00;97783.63;5121849;28;19999;-63
2022/09/10 05:27:55;;;;;;;;;;;;;;;17.77;100.00;97777.25;5120336;28;19945;-63
2022/09/10 05:30:21;;;;;;;;;;;;;;;17.47;100.00;97789.63;5123572;28;19982;-63
2022/09/10 05:32:49;;;;;;;;;;;;;;;17.52;100.00;97784.09;5123644;28;19945;-63
2022/09/10 05:35:15;;;;;;;;;;;;;;;17.43;100.00;97782.44;5120161;28;19920;-63
2022/09/10 05:37:42;;;;;;;;;;;;;;;17.46;100.00;97779.13;5119860;28;19971;-63
2022/09/10 05:40:09;;;;;;;;;;;;;;;17.60;100.00;97782.59;5122161;28;19960;-63
2022/09/10 05:42:36;;;;;;;;;;;;;;;17.86;100.00;97790.81;5139183;27;19946;-63
2022/09/10 05:45:03;;;;;;;;;;;;;;;17.55;100.00;97790.81;5103413;28;19923;-63
2022/09/10 05:47:30;;;;;;;;;;;;;;;17.18;100.00;97784.69;5119648;28;19999;-63
2022/09/10 05:49:56;;;;;;;;;;;;;;;16.86;100.00;97793.06;5120218;28;19970;-63
2022/09/10 05:52:23;;;;;;;;;;;;;;;16.44;100.00;97796.94;5123126;28;19934;-62
2022/09/10 05:54:49;;;;;;;;;;;;;;;16.27;100.00;97791.41;5124940;28;19959;-62
2022/09/10 05:57:15;;;;;;;;;;;;;;;16.33;100.00;97808.25;5119766;28;19947;-62
2022/09/10 05:59:42;;;;;;;;;;;;;;;16.68;100.00;97799.44;5119294;28;19924;-63
2022/09/10 06:02:15;;;;;;;;;;;;;;;16.35;100.00;97798.78;5121866;28;20006;-63
2022/09/10 06:04:41;;;;;;;;;;;;;;;16.37;100.00;97804.66;5104861;28;20398;-64
2022/09/10 06:07:08;;;;;;;;;;;;;;;16.12;100.00;97803.28;5120584;28;19923;-64
2022/09/10 06:09:34;;;;;;;;;;;;;;;16.15;100.00;97802.69;5119179;28;19928;-64
2022/09/10 06:12:01;;;;;;;;;;;;;;;15.98;100.00;97804.41;5120750;28;19959;-63
2022/09/10 06:14:27;;;;;;;;;;;;;;;16.09;100.00;97805.81;5122942;28;19967;-63
2022/09/10 06:16:54;;;;;;;;;;;;;;;16.15;100.00;97797.28;5122550;28;19950;-63
2022/09/10 06:19:22;;;;;;;;;;;;;;;16.11;100.00;97801.72;5119154;28;19920;-63
2022/09/10 06:21:49;;;;;;;;;;;;;;;15.87;100.00;97797.63;5119452;28;19963;-63
2022/09/10 06:24:15;;;;;;;;;;;;;;;15.96;100.00;97798.53;5124231;28;19924;-63
2022/09/10 06:26:42;;;;;;;;;;;;;;;16.04;100.00;97800.50;5104613;28;19931;-62
2022/09/10 06:29:09;;;;;;;;;;;;;;;15.89;100.00;97801.63;5120070;28;19937;-63
2022/09/10 06:31:35;;;;;;;;;;;;;;;15.87;100.00;97800.31;5119073;28;19928;-62
2022/09/10 06:34:02;;;;;;;;;;;;;;;15.85;100.00;97807.88;5120394;28;19985;-63
2022/09/10 06:36:30;;;;;;;;;;;;;;;16.03;100.00;97809.72;5122571;28;19974;-63
2022/09/10 06:38:56;;;;;;;;;;;;;;;15.91;100.00;97806.69;5122030;28;19930;-62
2022/09/10 06:41:23;;;;;;;;;;;;;;;15.80;100.00;97808.00;5119224;28;19924;-63
2022/09/10 06:43:50;;;;;;;;;;;;;;;15.79;100.00;97814.47;5118968;28;19924;-62
2022/09/10 06:46:17;;;;;;;;;;;;;;;15.77;100.00;97817.47;5122498;28;19975;-62
2022/09/10 06:48:44;;;;;;;;;;;;;;;15.90;100.00;97815.88;5122837;28;20541;-63
2022/09/10 06:51:12;;;;;;;;;;;;;;;16.12;100.00;97811.38;5120100;28;19927;-62
2022/09/10 06:53:40;;;;;;;;;;;;;;;16.25;100.00;97815.16;5118890;28;19924;-62
2022/09/10 06:56:07;;;;;;;;;;;;;;;16.49;100.00;97809.53;5120913;28;20443;-62
2022/09/10 06:58:34;;;;;;;;;;;;;;;16.85;100.00;97809.53;5122134;28;19930;-62
2022/09/10 07:01:06;;;;;;;;;;;;;;;16.63;100.00;97804.91;5120852;28;19926;-64
2022/09/10 07:03:33;;;;;;;;;;;;;;;16.38;100.00;97806.25;5118241;28;19924;-62
2022/09/10 07:06:02;;;;;;;;;;;;;;;16.20;100.00;97801.78;5119296;28;19963;-63
2022/09/10 07:08:28;;;;;;;;;;;;;;;16.01;100.00;97795.72;5121945;28;19959;-63
2022/09/10 07:11:01;;;;;;;;;;;;;;;15.87;100.00;97808.41;5120877;28;19987;-63
2022/09/10 07:13:28;;;;;;;;;;;;;;;16.29;100.00;97818.03;5117104;28;19979;-63
2022/09/10 07:15:54;;;;;;;;;;;;;;;16.47;100.00;97815.22;5118296;28;19999;-62
2022/09/10 07:18:20;;;;;;;;;;;;;;;16.75;100.00;97818.66;5121955;28;19987;-63
2022/09/10 07:20:47;;;;;;;;;;;;;;;16.76;100.00;97822.97;5122125;28;20351;-63
2022/09/10 07:23:14;;;;;;;;;;;;;;;16.54;100.00;97815.63;5119012;28;19988;-63
2022/09/10 07:25:41;;;;;;;;;;;;;;;16.42;100.00;97823.41;5120119;28;19920;-64
2022/09/10 07:28:11;;;;;;;;;;;;;;;16.26;100.00;97824.84;5120479;28;19924;-63
2022/09/10 07:30:38;;;;;;;;;;;;;;;16.36;100.00;97835.41;5121821;28;20493;-63
2022/09/10 07:33:05;;;;;;;;;;;;;;;16.96;100.00;97837.88;5120378;28;20019;-62
2022/09/10 07:35:33;;;;;;;;;;;;;;;17.28;100.00;97837.63;5118607;28;19983;-63
2022/09/10 07:38:00;;;;;;;;;;;;;;;17.47;100.00;97837.44;5119704;28;19928;-65
2022/09/10 07:40:27;;;;;;;;;;;;;;;17.48;100.00;97845.25;5122271;28;19931;-65
2022/09/10 07:42:54;;;;;;;;;;;;;;;17.65;100.00;97847.25;5122339;28;19920;-64
2022/09/10 07:45:22;;;;;;;;;;;;;;;17.84;100.00;97842.41;5118734;28;19929;-63
2022/09/10 07:47:48;;;;;;;;;;;;;;;18.11;100.00;97846.81;5118866;28;19987;-63
2022/09/10 07:50:15;;;;;;;;;;;;;;;18.21;100.00;97846.53;5121848;28;19963;-63
2022/09/10 07:52:42;;;;;;;;;;;;;;;18.42;100.00;97847.53;5121937;28;19935;-64
2022/09/10 07:55:08;;;;;;;;;;;;;;;18.35;100.00;97848.00;5103564;28;20508;-64
2022/09/10 07:57:36;;;;;;;;;;;;;;;18.40;100.00;97859.78;5118419;28;19991;-64
2022/09/10 08:00:05;;;;;;;;;;;;;;;18.52;100.00;97857.28;5120051;28;19970;-63
2022/09/10 08:02:32;;;;;;;;;;;;;;;18.52;100.00;97849.19;5121506;28;19924;-63
2022/09/10 08:05:00;;;;;;;;;;;;;;;18.74;100.00;97859.88;5120700;28;19930;-63
2022/09/10 08:07:26;;;;;;;;;;;;;;;18.78;100.00;97855.44;5118108;28;19924;-62
2022/09/10 08:09:52;;;;;;;;;;;;;;;18.64;100.00;97852.84;5118330;28;19955;-63
2022/09/10 08:12:19;;;;;;;;;;;;;;;18.41;100.00;97851.38;5121637;28;19983;-63
2022/09/10 08:14:45;;;;;;;;;;;;;;;18.51;100.00;97856.50;5121694;28;19966;-62
2022/09/10 08:17:11;;;;;;;;;;;;;;;18.53;100.00;97858.91;5118904;28;19924;-62
2022/09/10 08:19:39;;;;;;;;;;;;;;;18.56;100.00;97859.06;5118201;28;19928;-62
2022/09/10 08:22:05;;;;;;;;;;;;;;;18.48;100.00;97856.28;5120299;28;19962;-62
2022/09/10 08:24:32;;;;;;;;;;;;;;;18.50;100.00;97860.31;5126866;28;19970;-62
2022/09/10 08:26:58;;;;;;;;;;;;;;;18.52;100.00;97862.69;5124119;28;20027;-62
2022/09/10 08:29:24;;;;;;;;;;;;;;;18.65;100.00;97861.78;5121294;28;19924;-64
2022/09/10 08:31:51;;;;;;;;;;;;;;;18.52;100.00;97868.13;5121535;28;19956;-64
2022/09/10 08:34:17;;;;;;;;;;;;;;;18.56;100.00;97866.38;5124675;28;20019;-64
2022/09/10 08:36:45;;;;;;;;;;;;;;;18.68;100.00;97877.38;5124840;28;19928;-64
2022/09/10 08:39:11;;;;;;;;;;;;;;;18.59;100.00;97871.16;5122140;28;19924;-63
2022/09/10 08:41:45;;;;;;;;;;;;;;;18.65;100.00;97867.19;5121109;28;20391;-63
2022/09/10 08:44:16;;;;;;;;;;;;;;;18.73;100.00;97879.91;5123682;28;19924;-63
2022/09/10 08:46:46;;;;;;;;;;;;;;;18.84;100.00;97876.63;5124613;28;19923;-63
2022/09/10 08:49:17;;;;;;;;;;;;;;;18.60;100.00;97876.22;5121908;28;19975;-64
2022/09/10 08:51:47;;;;;;;;;;;;;;;18.56;100.00;97880.69;5121046;28;20095;-63
2022/09/10 08:54:15;;;;;;;;;;;;;;;18.52;100.00;97890.53;5126134;28;20058;-64
2022/09/10 08:56:42;;;;;;;;;;;;;;;18.59;100.00;97874.66;5124583;28;19991;-63
2022/09/10 08:59:16;;;;;;;;;;;;;;;18.63;100.00;97882.94;5122208;28;19931;-63
2022/09/10 09:01:45;;;;;;;;;;;;;;;18.59;100.00;97881.97;5120781;28;19924;-63
2022/09/10 09:04:15;;;;;;;;;;;;;;;18.73;100.00;97877.22;5123493;28;19943;-63
2022/09/10 09:06:44;;;;;;;;;;;;;;;18.80;100.00;97885.66;5124128;28;19919;-63
2022/09/10 09:09:13;;;;;;;;;;;;;;;18.87;100.00;97880.59;5121756;28;19995;-63
2022/09/10 09:11:45;;;;;;;;;;;;;;;18.85;100.00;97880.88;5120667;28;20447;-63
2022/09/10 09:14:26;;;;;;;;;;;;;;;18.93;100.00;97884.72;5123496;28;19967;-63
2022/09/10 09:17:09;;;;;;;;;;;;;;;18.77;100.00;97883.59;5124040;28;19927;-63
2022/09/10 09:19:44;;;;;;;;;;;;;;;18.78;100.00;97887.91;5120423;28;19966;-63
2022/09/10 09:22:15;;;;;;;;;;;;;;;18.73;100.00;97885.34;5122745;28;19924;-63
2022/09/10 09:24:49;;;;;;;;;;;;;;;18.83;100.00;97885.84;5125757;28;19958;-63
2022/09/10 09:27:16;;;;;;;;;;;;;;;18.63;100.00;97889.13;5120596;28;19946;-63
2022/09/10 09:29:46;;;;;;;;;;;;;;;18.67;100.00;97892.81;5120131;28;20580;-63
2022/09/10 09:32:16;;;;;;;;;;;;;;;18.58;100.00;97883.06;5122983;28;19931;-63
2022/09/10 09:34:45;;;;;;;;;;;;;;;18.63;100.00;97885.66;5123303;28;19950;-62
2022/09/10 09:37:15;;;;;;;;;;;;;;;18.60;100.00;97880.88;5121283;28;19954;-62
2022/09/10 09:39:43;;;;;;;;;;;;;;;18.66;100.00;97885.03;5120206;28;19920;-62
2022/09/10 09:42:17;;;;;;;;;;;;;;;18.68;100.00;97877.38;5122553;28;19928;-63
2022/09/10 09:44:48;;;;;;;;;;;;;;;18.83;100.00;97875.00;5123363;28;19991;-63
2022/09/10 09:47:14;;;;;;;;;;;;;;;18.82;100.00;97881.53;5120427;28;19930;-63
2022/09/10 09:49:41;;;;;;;;;;;;;;;18.68;100.00;97878.19;5119752;28;19995;-64
2022/09/10 09:52:17;;;;;;;;;;;;;;;18.58;100.00;97873.06;5121763;28;19924;-64
2022/09/10 09:54:47;;;;;;;;;;;;;;;18.60;100.00;97878.16;5125140;28;19924;-63
2022/09/10 09:57:19;;;;;;;;;;;;;;;18.75;100.00;97883.13;5120309;28;19934;-63
2022/09/10 09:59:46;;;;;;;;;;;;;;;18.53;100.00;97872.41;5119821;28;19924;-63
2022/09/10 10:02:13;;;;;;;;;;;;;;;18.67;100.00;97871.16;5122301;28;19963;-63
2022/09/10 10:04:41;;;;;;;;;;;;;;;18.42;100.00;97879.19;5123131;28;19930;-63
2022/09/10 10:07:07;;;;;;;;;;;;;;;18.64;100.00;97860.19;5121026;28;19966;-62
2022/09/10 10:09:37;;;;;;;;;;;;;;;18.92;100.00;97868.78;5119616;28;19966;-63
2022/09/10 10:12:04;;;;;;;;;;;;;;;18.96;100.00;97862.44;5121071;28;19920;-63
2022/09/10 10:14:40;;;;;;;;;;;;;;;18.91;100.00;97859.88;5122808;28;19965;-63
2022/09/10 10:17:25;;;;;;;;;;;;;;;18.66;100.00;97857.97;5121175;28;19924;-63
2022/09/10 10:20:01;;;;;;;;;;;;;;;18.89;100.00;97856.69;5119471;28;19924;-62
2022/09/10 10:22:30;;;;;;;;;;;;;;;19.00;100.00;97852.56;5111012;28;19960;-63
2022/09/10 10:24:57;;;;;;;;;;;;;;;19.10;100.00;97846.81;5121106;28;19924;-63
2022/09/10 10:27:31;;;;;;;;;;;;;;;18.77;100.00;97848.41;5119125;28;19992;-63
2022/09/10 10:30:00;;;;;;;;;;;;;;;19.13;100.00;97846.19;5119894;28;19924;-63
2022/09/10 10:32:33;;;;;;;;;;;;;;;19.18;100.00;97831.72;5122625;28;19920;-63
2022/09/10 10:35:09;;;;;;;;;;;;;;;18.95;100.00;97833.78;5121627;28;19923;-63
2022/09/10 10:37:40;;;;;;;;;;;;;;;19.14;100.00;97820.72;5119003;28;19924;-63
2022/09/10 10:40:14;;;;;;;;;;;;;;;19.26;100.00;97820.88;5120863;28;19963;-62
2022/09/10 10:42:42;;;;;;;;;;;;;;;19.41;100.00;97827.69;5122330;27;20363;-62
2022/09/10 10:45:29;;;;;;;;;;;;;;;19.43;100.00;97821.97;5119126;28;19949;-62
2022/09/10 10:48:03;;;;;;;;;;;;;;;19.48;100.00;97808.25;5119082;28;19924;-63
2022/09/10 10:50:33;;;;;;;;;;;;;;;19.16;100.00;97810.34;5122321;28;19962;-63
2022/09/10 10:53:25;;;;;;;;;;;;;;;19.39;100.00;97808.25;5121119;28;20629;-62
2022/09/10 10:55:55;;;;;;;;;;;;;;;19.60;100.00;97801.06;5095994;28;19924;-62
2022/09/10 10:58:30;;;;;;;;;;;;;;;19.71;100.00;97798.78;5110060;28;19981;-63
2022/09/10 11:01:02;;;;;;;;;;;;;;;19.73;100.00;97804.69;5109759;28;19920;-63
2022/09/10 11:03:34;;;;;;;;;;;;;;;19.67;100.00;97792.44;5109836;28;19935;-63
2022/09/10 11:06:03;;;;;;;;;;;;;;;19.74;100.00;97795.44;5109887;28;19943;-63
2022/09/10 11:08:32;;;;;;;;;;;;;;;19.51;100.00;97786.75;5100450;28;19968;-63
2022/09/10 11:11:01;;;;;;;;;;;;;;;19.58;100.00;97786.25;5110607;28;19924;-63
2022/09/10 11:13:31;;;;;;;;;;;;;;;19.83;100.00;97793.47;5121856;28;19983;-63
2022/09/10 11:16:04;;;;;;;;;;;;;;;19.91;100.00;97789.94;5121470;28;19923;-63
2022/09/10 11:18:32;;;;;;;;;;;;;;;19.70;100.00;97784.44;5118405;28;19992;-62
2022/09/10 11:21:02;;;;;;;;;;;;;;;19.64;100.00;97791.16;5119242;28;19920;-62
2022/09/10 11:23:30;;;;;;;;;;;;;;;19.73;100.00;97783.81;5122036;28;19930;-62
2022/09/10 11:26:01;;;;;;;;;;;;;;;19.64;100.00;97776.81;5121694;28;19920;-63
2022/09/10 11:28:30;;;;;;;;;;;;;;;19.64;100.00;97785.75;5122004;28;20017;-63
2022/09/10 11:30:59;;;;;;;;;;;;;;;19.66;100.00;97780.00;5121217;28;19960;-63
2022/09/10 11:33:31;;;;;;;;;;;;;;;19.61;100.00;97774.75;5118122;28;19978;-62
2022/09/10 11:36:02;;;;;;;;;;;;;;;19.59;100.00;97775.06;5118634;28;19963;-63
2022/09/10 11:38:31;;;;;;;;;;;;;;;19.59;100.00;97779.72;5121641;28;19987;-64
2022/09/10 11:41:04;;;;;;;;;;;;;;;19.65;100.00;97770.28;5120912;28;20006;-63
2022/09/10 11:43:36;;;;;;;;;;;;;;;19.75;100.00;97775.34;5118005;28;19996;-64
2022/09/10 11:46:03;;;;;;;;;;;;;;;19.69;100.00;97773.91;5119069;28;19943;-64
2022/09/10 11:48:34;;;;;;;;;;;;;;;19.78;100.00;97774.69;5121537;28;19930;-64
2022/09/10 11:51:02;;;;;;;;;;;;;;;19.70;100.00;97773.63;5120543;28;19920;-62
2022/09/10 11:53:29;;;;;;;;;;;;;;;19.74;100.00;97781.88;5118079;28;19948;-63
2022/09/10 11:56:26;;;;;;;;;;;;;;;19.46;100.00;97765.25;5120481;28;20634;-63
2022/09/10 11:58:59;;;;;;;;;;;;;;;19.73;100.00;97762.13;5082578;28;20023;-63
2022/09/10 12:01:32;;;;;;;;;;;;;;;19.75;100.00;97769.91;5113501;28;19931;-63
2022/09/10 12:04:11;;;;;;;;;;;;;;;19.77;100.00;97767.69;5122768;28;19983;-63
2022/09/10 12:06:45;;;;;;;;;;;;;;;19.71;100.00;97766.28;5125098;28;19927;-63
2022/09/10 12:09:15;;;;;;;;;;;;;;;19.77;100.00;97773.91;5122673;28;19924;-64
2022/09/10 12:11:47;;;;;;;;;;;;;;;19.69;100.00;97771.22;5121937;28;19962;-64
2022/09/10 12:14:16;;;;;;;;;;;;;;;19.65;100.00;97776.47;5124983;28;19935;-62
2022/09/10 12:16:44;;;;;;;;;;;;;;;19.56;100.00;97775.72;5124905;28;19924;-63
2022/09/10 12:19:20;;;;;;;;;;;;;;;19.54;100.00;97779.88;5122356;28;19983;-64
2022/09/10 12:21:49;;;;;;;;;;;;;;;19.48;100.00;97771.13;5121412;28;19967;-63
2022/09/10 12:24:24;;;;;;;;;;;;;;;19.61;100.00;97769.34;5126722;28;19995;-63
2022/09/10 12:26:51;;;;;;;;;;;;;;;19.39;100.00;97768.47;5124827;28;19965;-63
2022/09/10 12:29:28;;;;;;;;;;;;;;;19.19;100.00;97779.13;5121318;28;19923;-63
2022/09/10 12:32:13;;;;;;;;;;;;;;;19.28;100.00;97758.28;5121540;28;19924;-63
2022/09/10 12:34:41;;;;;;;;;;;;;;;19.39;100.00;97763.06;5124652;28;19991;-63
2022/09/10 12:37:18;;;;;;;;;;;;;;;19.43;100.00;97770.53;5122848;28;19923;-63
2022/09/10 12:39:44;;;;;;;;;;;;;;;19.45;100.00;97781.81;5121014;28;19931;-63
2022/09/10 12:42:25;;;;;;;;;;;;;;;19.40;100.00;97786.28;5123619;28;19993;-64
2022/09/10 12:44:52;;;;;;;;;;;;;;;19.41;100.00;97789.78;5124156;28;19958;-64